YRARS LRBS-LRBS
Flight info
| Callsign | YRARS |
|---|---|
| Flight time | 0h 25m |
| Altitude | 3500 |
| Route | LRBS/25 BSW |
| Aircraft | SR22/L-SDGRY/S |
Departure
| Time | 2026-05-05 15:42 |
|---|---|
| Airport | Bucharest Băneasa Aurel Vlaicu International Airport (LRBS) |
Arrival
| Time | 2026-05-05 16:07 |
|---|---|
| Airport | Bucharest Băneasa Aurel Vlaicu International Airport (LRBS) |
| Time | Latitude | Longitude | Altitude | Speed | Heading |
|---|---|---|---|---|---|
| 2026-05-05 15:29 | 44.49799 | 26.08876 | 289 ft | 0 kts | 189° |
| 2026-05-05 15:31 | 44.49798 | 26.08876 | 289 ft | 0 kts | 188° |
| 2026-05-05 15:34 | 44.49801 | 26.08872 | 289 ft | 1 kts | 10° |
| 2026-05-05 15:35 | 44.49830 | 26.08871 | 289 ft | 7 kts | 358° |
| 2026-05-05 15:35 | 44.49859 | 26.08902 | 288 ft | 5 kts | 68° |
| 2026-05-05 15:35 | 44.49875 | 26.08971 | 288 ft | 9 kts | 73° |
| 2026-05-05 15:35 | 44.49894 | 26.09068 | 288 ft | 11 kts | 77° |
| 2026-05-05 15:36 | 44.49920 | 26.09191 | 287 ft | 14 kts | 73° |
| 2026-05-05 15:36 | 44.49949 | 26.09334 | 287 ft | 16 kts | 74° |
| 2026-05-05 15:36 | 44.49983 | 26.09497 | 286 ft | 18 kts | 74° |
| 2026-05-05 15:36 | 44.50018 | 26.09670 | 288 ft | 18 kts | 73° |
| 2026-05-05 15:37 | 44.50056 | 26.09851 | 287 ft | 20 kts | 73° |
| 2026-05-05 15:37 | 44.50094 | 26.10038 | 286 ft | 19 kts | 71° |
| 2026-05-05 15:37 | 44.50128 | 26.10201 | 285 ft | 16 kts | 72° |
| 2026-05-05 15:37 | 44.50160 | 26.10356 | 282 ft | 16 kts | 73° |
| 2026-05-05 15:38 | 44.50206 | 26.10444 | 283 ft | 3 kts | 15° |
| 2026-05-05 15:38 | 44.50209 | 26.10445 | 283 ft | 2 kts | 21° |
| 2026-05-05 15:39 | 44.50249 | 26.10449 | 283 ft | 0 kts | 341° |
| 2026-05-05 15:40 | 44.50264 | 26.10442 | 283 ft | 6 kts | 342° |
| 2026-05-05 15:40 | 44.50327 | 26.10417 | 284 ft | 8 kts | 343° |
| 2026-05-05 15:40 | 44.50342 | 26.10395 | 284 ft | 5 kts | 304° |
| 2026-05-05 15:41 | 44.50320 | 26.10223 | 285 ft | 46 kts | 254° |
| 2026-05-05 15:41 | 44.50175 | 26.09514 | 357 ft | 92 kts | 252° |
| 2026-05-05 15:41 | 44.50011 | 26.08633 | 639 ft | 98 kts | 256° |
| 2026-05-05 15:41 | 44.49857 | 26.07689 | 873 ft | 108 kts | 256° |
| 2026-05-05 15:42 | 44.49695 | 26.06553 | 992 ft | 126 kts | 260° |
| 2026-05-05 15:42 | 44.49588 | 26.05311 | 1141 ft | 128 kts | 265° |
| 2026-05-05 15:42 | 44.49541 | 26.04059 | 1347 ft | 134 kts | 269° |
| 2026-05-05 15:42 | 44.49560 | 26.02731 | 1494 ft | 138 kts | 273° |
| 2026-05-05 15:43 | 44.49657 | 26.01404 | 1558 ft | 136 kts | 279° |
| 2026-05-05 15:43 | 44.49858 | 26.00118 | 1609 ft | 136 kts | 285° |
| 2026-05-05 15:43 | 44.50183 | 25.98889 | 1683 ft | 135 kts | 295° |
| 2026-05-05 15:43 | 44.50622 | 25.97691 | 1701 ft | 137 kts | 302° |
| 2026-05-05 15:44 | 44.51169 | 25.96552 | 1595 ft | 146 kts | 306° |
| 2026-05-05 15:44 | 44.51736 | 25.95325 | 1481 ft | 154 kts | 304° |
| 2026-05-05 15:44 | 44.52363 | 25.94099 | 1465 ft | 152 kts | 307° |
| 2026-05-05 15:44 | 44.52947 | 25.92896 | 1529 ft | 145 kts | 283° |
| 2026-05-05 15:45 | 44.52578 | 25.91688 | 1548 ft | 145 kts | 212° |
| 2026-05-05 15:45 | 44.51603 | 25.91502 | 1571 ft | 147 kts | 162° |
| 2026-05-05 15:45 | 44.50825 | 25.92421 | 1561 ft | 152 kts | 127° |
| 2026-05-05 15:45 | 44.50156 | 25.93631 | 1449 ft | 160 kts | 129° |
| 2026-05-05 15:46 | 44.49480 | 25.94839 | 1568 ft | 151 kts | 125° |
| 2026-05-05 15:46 | 44.48871 | 25.95955 | 1762 ft | 142 kts | 124° |
| 2026-05-05 15:46 | 44.48403 | 25.97196 | 1748 ft | 149 kts | 117° |
| 2026-05-05 15:46 | 44.47927 | 25.98522 | 1697 ft | 155 kts | 114° |
| 2026-05-05 15:47 | 44.47768 | 26.00013 | 1630 ft | 160 kts | 90° |
| 2026-05-05 15:47 | 44.47931 | 26.01531 | 1598 ft | 158 kts | 61° |
| 2026-05-05 15:47 | 44.48612 | 26.02716 | 1517 ft | 155 kts | 46° |
| 2026-05-05 15:47 | 44.49547 | 26.03355 | 1493 ft | 149 kts | 9° |
| 2026-05-05 15:48 | 44.50561 | 26.03569 | 1475 ft | 145 kts | 9° |
| 2026-05-05 15:48 | 44.51506 | 26.03915 | 1477 ft | 140 kts | 31° |
| 2026-05-05 15:48 | 44.52164 | 26.04926 | 1515 ft | 143 kts | 63° |
| 2026-05-05 15:48 | 44.52486 | 26.06262 | 1543 ft | 147 kts | 73° |
| 2026-05-05 15:49 | 44.52786 | 26.07643 | 1558 ft | 150 kts | 74° |
| 2026-05-05 15:49 | 44.53040 | 26.09067 | 1583 ft | 151 kts | 77° |
| 2026-05-05 15:49 | 44.53267 | 26.10534 | 1564 ft | 154 kts | 78° |
| 2026-05-05 15:49 | 44.53494 | 26.11998 | 1538 ft | 155 kts | 78° |
| 2026-05-05 15:50 | 44.53693 | 26.13473 | 1531 ft | 151 kts | 81° |
| 2026-05-05 15:50 | 44.53767 | 26.14898 | 1581 ft | 145 kts | 98° |
| 2026-05-05 15:50 | 44.53217 | 26.16004 | 1589 ft | 144 kts | 154° |
| 2026-05-05 15:50 | 44.52235 | 26.16014 | 1569 ft | 146 kts | 201° |
| 2026-05-05 15:51 | 44.51479 | 26.15086 | 1164 ft | 134 kts | 237° |
| 2026-05-05 15:51 | 44.51120 | 26.14019 | 695 ft | 112 kts | 252° |
| 2026-05-05 15:51 | 44.50917 | 26.13083 | 452 ft | 88 kts | 253° |
| 2026-05-05 15:51 | 44.50750 | 26.12304 | 346 ft | 91 kts | 250° |
| 2026-05-05 15:52 | 44.50572 | 26.11439 | 283 ft | 84 kts | 255° |
| 2026-05-05 15:52 | 44.50427 | 26.10705 | 341 ft | 83 kts | 254° |
| 2026-05-05 15:52 | 44.50278 | 26.09834 | 532 ft | 101 kts | 256° |
| 2026-05-05 15:52 | 44.50076 | 26.08788 | 690 ft | 120 kts | 254° |
| 2026-05-05 15:53 | 44.49872 | 26.07587 | 868 ft | 133 kts | 258° |
| 2026-05-05 15:53 | 44.49677 | 26.06317 | 1157 ft | 135 kts | 258° |
| 2026-05-05 15:53 | 44.49486 | 26.05012 | 1389 ft | 140 kts | 258° |
| 2026-05-05 15:53 | 44.49274 | 26.03651 | 1505 ft | 146 kts | 258° |
| 2026-05-05 15:54 | 44.49237 | 26.02270 | 1582 ft | 145 kts | 298° |
| 2026-05-05 15:54 | 44.50116 | 26.01666 | 1595 ft | 147 kts | 357° |
| 2026-05-05 15:54 | 44.51091 | 26.02017 | 1610 ft | 149 kts | 31° |
| 2026-05-05 15:54 | 44.51785 | 26.03057 | 1567 ft | 146 kts | 60° |
| 2026-05-05 15:55 | 44.52103 | 26.04385 | 1553 ft | 142 kts | 78° |
| 2026-05-05 15:55 | 44.52281 | 26.05726 | 1548 ft | 139 kts | 81° |
| 2026-05-05 15:55 | 44.52384 | 26.07077 | 1514 ft | 142 kts | 87° |
| 2026-05-05 15:55 | 44.52449 | 26.08485 | 1541 ft | 145 kts | 79° |
| 2026-05-05 15:56 | 44.52671 | 26.09865 | 1631 ft | 140 kts | 77° |
| 2026-05-05 15:56 | 44.52862 | 26.11261 | 1571 ft | 150 kts | 79° |
| 2026-05-05 15:56 | 44.53087 | 26.12712 | 1556 ft | 154 kts | 78° |
| 2026-05-05 15:56 | 44.53318 | 26.14182 | 1521 ft | 155 kts | 74° |
| 2026-05-05 15:57 | 44.53753 | 26.15543 | 1546 ft | 153 kts | 64° |
| 2026-05-05 15:57 | 44.54086 | 26.16920 | 1616 ft | 148 kts | 90° |
| 2026-05-05 15:57 | 44.53557 | 26.18049 | 1636 ft | 148 kts | 155° |
| 2026-05-05 15:57 | 44.52541 | 26.17957 | 1570 ft | 153 kts | 206° |
| 2026-05-05 15:58 | 44.51763 | 26.16973 | 1401 ft | 131 kts | 234° |
| 2026-05-05 15:58 | 44.51506 | 26.15922 | 1048 ft | 106 kts | 255° |
| 2026-05-05 15:58 | 44.51324 | 26.14989 | 715 ft | 92 kts | 255° |
| 2026-05-05 15:58 | 44.51133 | 26.14121 | 590 ft | 102 kts | 251° |
| 2026-05-05 15:59 | 44.50942 | 26.13232 | 451 ft | 95 kts | 254° |
| 2026-05-05 15:59 | 44.50763 | 26.12354 | 339 ft | 90 kts | 253° |
| 2026-05-05 15:59 | 44.50593 | 26.11538 | 276 ft | 78 kts | 253° |
| 2026-05-05 15:59 | 44.50452 | 26.10844 | 285 ft | 88 kts | 252° |
| 2026-05-05 16:00 | 44.50271 | 26.09962 | 484 ft | 102 kts | 253° |
| 2026-05-05 16:00 | 44.50079 | 26.08966 | 728 ft | 109 kts | 256° |
| 2026-05-05 16:00 | 44.49897 | 26.07907 | 941 ft | 115 kts | 255° |
| 2026-05-05 16:00 | 44.49691 | 26.06827 | 1179 ft | 116 kts | 255° |
| 2026-05-05 16:01 | 44.49482 | 26.05682 | 1328 ft | 130 kts | 256° |
| 2026-05-05 16:01 | 44.49278 | 26.04403 | 1514 ft | 140 kts | 259° |
| 2026-05-05 16:01 | 44.49099 | 26.03024 | 1587 ft | 146 kts | 261° |
| 2026-05-05 16:01 | 44.49284 | 26.01693 | 1644 ft | 146 kts | 314° |
| 2026-05-05 16:02 | 44.50245 | 26.01316 | 1627 ft | 151 kts | 7° |
| 2026-05-05 16:02 | 44.51266 | 26.01743 | 1553 ft | 153 kts | 25° |
| 2026-05-05 16:02 | 44.52077 | 26.02631 | 1517 ft | 146 kts | 53° |
| 2026-05-05 16:02 | 44.52451 | 26.03913 | 1498 ft | 140 kts | 78° |
| 2026-05-05 16:03 | 44.52618 | 26.05250 | 1491 ft | 139 kts | 82° |
| 2026-05-05 16:03 | 44.52728 | 26.06641 | 1472 ft | 152 kts | 84° |
| 2026-05-05 16:03 | 44.52835 | 26.08165 | 1516 ft | 159 kts | 85° |
| 2026-05-05 16:03 | 44.52935 | 26.09711 | 1543 ft | 158 kts | 85° |
| 2026-05-05 16:04 | 44.53058 | 26.11222 | 1571 ft | 154 kts | 82° |
| 2026-05-05 16:04 | 44.53227 | 26.12697 | 1564 ft | 153 kts | 78° |
| 2026-05-05 16:04 | 44.53450 | 26.14124 | 1472 ft | 146 kts | 79° |
| 2026-05-05 16:04 | 44.53385 | 26.15452 | 1346 ft | 136 kts | 120° |
| 2026-05-05 16:05 | 44.52628 | 26.16092 | 1159 ft | 132 kts | 180° |
| 2026-05-05 16:05 | 44.51754 | 26.15731 | 1055 ft | 134 kts | 215° |
| 2026-05-05 16:05 | 44.51293 | 26.14795 | 881 ft | 104 kts | 252° |
| 2026-05-05 16:05 | 44.51099 | 26.13893 | 578 ft | 90 kts | 253° |
| 2026-05-05 16:06 | 44.50921 | 26.13092 | 437 ft | 86 kts | 251° |
| 2026-05-05 16:06 | 44.50746 | 26.12282 | 321 ft | 85 kts | 254° |
| 2026-05-05 16:06 | 44.50588 | 26.11511 | 279 ft | 80 kts | 255° |
| 2026-05-05 16:06 | 44.50459 | 26.10871 | 278 ft | 53 kts | 255° |
| 2026-05-05 16:07 | 44.50373 | 26.10468 | 283 ft | 30 kts | 252° |
| 2026-05-05 16:07 | 44.50315 | 26.10419 | 284 ft | 5 kts | 182° |
| 2026-05-05 16:07 | 44.50258 | 26.10445 | 283 ft | 15 kts | 164° |
| 2026-05-05 16:07 | 44.50178 | 26.10420 | 282 ft | 10 kts | 231° |
| 2026-05-05 16:08 | 44.50156 | 26.10337 | 282 ft | 10 kts | 255° |
| 2026-05-05 16:08 | 44.50139 | 26.10253 | 284 ft | 2 kts | 262° |
| 2026-05-05 16:08 | 44.50125 | 26.10182 | 285 ft | 14 kts | 253° |
| 2026-05-05 16:08 | 44.50092 | 26.10010 | 286 ft | 17 kts | 253° |
| 2026-05-05 16:09 | 44.50061 | 26.09869 | 287 ft | 13 kts | 257° |
| 2026-05-05 16:09 | 44.50032 | 26.09731 | 288 ft | 19 kts | 252° |
| 2026-05-05 16:09 | 44.49985 | 26.09496 | 286 ft | 26 kts | 256° |
| 2026-05-05 16:09 | 44.49942 | 26.09287 | 287 ft | 19 kts | 255° |
| 2026-05-05 16:10 | 44.49907 | 26.09129 | 287 ft | 15 kts | 251° |
| 2026-05-05 16:10 | 44.49883 | 26.09007 | 288 ft | 11 kts | 253° |
| 2026-05-05 16:10 | 44.49862 | 26.08909 | 288 ft | 16 kts | 253° |
| 2026-05-05 16:10 | 44.49833 | 26.08768 | 289 ft | 13 kts | 251° |
| 2026-05-05 16:11 | 44.49803 | 26.08700 | 289 ft | 6 kts | 95° |
| 2026-05-05 16:11 | 44.49745 | 26.08753 | 289 ft | 0 kts | 188° |